createdAt,value
2019-05-07T00:00:43.587Z,63.35
2019-05-07T00:03:12.231Z,63.95
2019-05-07T00:05:42.619Z,63.86
2019-05-07T00:08:12.199Z,63.79
2019-05-07T00:10:42.554Z,63.83
2019-05-07T00:15:49.719Z,64.04
2019-05-07T00:18:19.907Z,63.65
2019-05-07T00:20:49.838Z,64.21
2019-05-07T00:23:19.750Z,64.14
2019-05-07T00:25:49.677Z,63.87
2019-05-07T00:28:19.875Z,64.26
2019-05-07T00:30:51.989Z,64.79
2019-05-07T00:33:19.726Z,65.34
2019-05-07T00:35:49.658Z,65.75
2019-05-07T00:38:19.590Z,65.51
2019-05-07T00:40:49.519Z,65.29
2019-05-07T00:43:19.429Z,65.45
2019-05-07T00:45:49.354Z,65.84
2019-05-07T00:48:19.279Z,65.78
2019-05-07T00:50:49.801Z,65.85
2019-05-07T00:53:20.023Z,66.00
2019-05-07T00:55:49.947Z,66.10
2019-05-07T00:58:19.869Z,66.82
2019-05-07T01:00:49.813Z,66.90
2019-05-07T01:03:22.094Z,67.27
2019-05-07T01:05:50.014Z,67.55
2019-05-07T01:08:22.328Z,67.59
2019-05-07T01:10:49.866Z,67.66
2019-05-07T01:15:59.118Z,67.65
2019-05-07T01:18:29.054Z,67.22
2019-05-07T01:20:58.978Z,67.58
2019-05-07T01:23:29.227Z,67.62
2019-05-07T01:25:59.446Z,67.27
2019-05-07T01:28:29.364Z,67.38
2019-05-07T01:30:59.293Z,67.57
2019-05-07T01:33:29.226Z,67.13
2019-05-07T01:35:59.500Z,67.55
2019-05-07T01:38:29.722Z,67.62
2019-05-07T01:40:59.666Z,68.06
2019-05-07T01:43:31.958Z,68.37
2019-05-07T01:46:00.091Z,68.12
2019-05-07T01:48:32.200Z,68.16
2019-05-07T01:50:59.931Z,68.11
2019-05-07T01:53:32.179Z,68.19
2019-05-07T01:56:00.340Z,68.20
2019-05-07T01:58:30.266Z,67.91
2019-05-07T02:01:02.584Z,68.51
2019-05-07T02:03:32.624Z,68.57
2019-05-07T02:06:01.719Z,68.69
2019-05-07T02:08:29.960Z,68.62
2019-05-07T02:11:01.942Z,69.09
2019-05-07T02:16:09.489Z,69.23
2019-05-07T02:18:39.411Z,69.27
2019-05-07T02:21:09.606Z,68.65
2019-05-07T02:23:39.522Z,68.66
2019-05-07T02:26:09.454Z,69.28
2019-05-07T02:28:39.378Z,69.36
2019-05-07T02:31:09.314Z,68.93
2019-05-07T02:33:39.232Z,69.15
2019-05-07T02:36:09.150Z,69.33
2019-05-07T02:38:39.102Z,69.26
2019-05-07T02:41:09.322Z,69.23
2019-05-07T02:43:39.273Z,69.47
2019-05-07T02:46:25.031Z,69.41
2019-05-07T02:48:39.120Z,69.51
2019-05-07T02:51:09.032Z,69.21
2019-05-07T02:53:38.953Z,69.40
2019-05-07T02:56:08.864Z,69.65
2019-05-07T02:58:38.807Z,69.94
2019-05-07T03:01:08.771Z,69.97
2019-05-07T03:03:38.708Z,69.84
2019-05-07T03:06:08.639Z,70.15
2019-05-07T03:11:18.217Z,69.78
2019-05-07T03:13:48.165Z,70.04
2019-05-07T03:16:35.389Z,70.60
2019-05-07T03:18:48.093Z,71.14
2019-05-07T03:21:18.104Z,70.82
2019-05-07T03:23:47.934Z,71.02
2019-05-07T03:26:18.208Z,71.53
2019-05-07T03:28:48.164Z,71.50
2019-05-07T03:31:18.099Z,71.09
2019-05-07T03:33:48.177Z,70.81
2019-05-07T03:36:17.970Z,71.46
2019-05-07T03:38:48.183Z,71.54
2019-05-07T03:41:18.106Z,71.27
2019-05-07T03:46:27.386Z,70.64
2019-05-07T03:48:57.317Z,70.55
2019-05-07T03:51:27.258Z,70.31
2019-05-07T03:53:57.174Z,70.53
2019-05-07T03:56:27.094Z,70.87
2019-05-07T03:58:57.050Z,71.05
2019-05-07T04:01:27.231Z,71.30
2019-05-07T04:03:57.446Z,71.07
2019-05-07T04:06:27.378Z,70.68
2019-05-07T04:08:57.591Z,71.36
2019-05-07T04:11:27.513Z,71.22
2019-05-07T04:13:58.125Z,71.23
2019-05-07T04:16:28.039Z,72.25
2019-05-07T04:18:58.009Z,71.88
2019-05-07T04:21:28.276Z,71.48
2019-05-07T04:23:58.222Z,71.61
2019-05-07T04:26:28.123Z,71.69
2019-05-07T04:28:58.419Z,71.82
2019-05-07T04:31:28.367Z,72.28
2019-05-07T04:36:37.622Z,72.51
2019-05-07T04:39:07.913Z,72.36
2019-05-07T04:41:37.823Z,72.39
2019-05-07T04:44:07.765Z,71.71
2019-05-07T04:46:37.944Z,72.70
2019-05-07T04:49:07.875Z,72.21
2019-05-07T04:51:37.828Z,72.24
2019-05-07T04:54:07.785Z,72.28
2019-05-07T04:56:37.692Z,72.40
2019-05-07T04:59:07.955Z,72.23
2019-05-07T05:01:37.861Z,72.21
2019-05-07T05:04:21.999Z,72.81
2019-05-07T05:06:37.741Z,73.73
2019-05-07T05:09:07.719Z,73.45
2019-05-07T05:11:37.903Z,73.66
2019-05-07T05:16:47.446Z,73.78
2019-05-07T05:19:17.392Z,73.38
2019-05-07T05:21:47.322Z,73.92
2019-05-07T05:24:17.599Z,73.78
2019-05-07T05:26:47.523Z,73.69
2019-05-07T05:29:17.458Z,74.02
2019-05-07T05:31:47.646Z,74.06
2019-05-07T05:34:17.863Z,74.01
2019-05-07T05:36:47.799Z,73.45
2019-05-07T05:39:17.731Z,73.69
2019-05-07T05:41:47.657Z,74.13
2019-05-07T05:44:17.600Z,74.33
2019-05-07T05:46:47.533Z,74.05
2019-05-07T05:49:17.446Z,74.51
2019-05-07T05:51:47.387Z,74.40
2019-05-07T05:54:17.308Z,75.00
2019-05-07T05:56:47.236Z,76.27
2019-05-07T05:59:27.227Z,76.00
2019-05-07T06:01:47.094Z,75.98
2019-05-07T06:04:17.023Z,76.23
2019-05-07T06:06:46.966Z,76.83
2019-05-07T06:09:16.882Z,77.29
2019-05-07T06:11:46.840Z,77.51
2019-05-07T06:16:56.083Z,78.38
2019-05-07T06:19:26.014Z,78.00
2019-05-07T06:21:55.947Z,76.99
2019-05-07T06:27:05.503Z,77.99
2019-05-07T06:29:35.440Z,77.08
2019-05-07T06:32:05.383Z,77.70
2019-05-07T06:37:14.649Z,76.97
2019-05-07T06:39:44.580Z,77.38
2019-05-07T06:42:14.516Z,77.00
2019-05-07T06:44:44.429Z,77.27
2019-05-07T06:47:14.368Z,77.80
2019-05-07T06:49:44.647Z,78.06
2019-05-07T06:52:14.576Z,77.18
2019-05-07T06:54:44.781Z,77.08
2019-05-07T06:57:14.718Z,77.07
2019-05-07T06:59:44.640Z,77.11
2019-05-07T07:02:14.602Z,77.62
2019-05-07T07:04:44.516Z,77.36
2019-05-07T07:07:26.283Z,77.13
2019-05-07T07:09:44.690Z,76.87
2019-05-07T07:12:14.984Z,76.72
2019-05-07T07:14:44.927Z,76.67
2019-05-07T07:17:15.124Z,76.71
2019-05-07T07:19:45.063Z,76.39
2019-05-07T07:22:15.009Z,75.55
2019-05-07T07:24:44.929Z,75.26
2019-05-07T07:27:14.877Z,76.01
2019-05-07T07:29:45.121Z,74.75
2019-05-07T07:32:14.738Z,74.38
2019-05-07T07:34:44.660Z,74.16
2019-05-07T07:37:15.871Z,73.10
2019-05-07T07:39:44.524Z,73.43
2019-05-07T07:42:14.460Z,73.89
2019-05-07T07:44:44.385Z,73.45
2019-05-07T07:47:14.329Z,73.44
2019-05-07T07:49:44.243Z,73.44
2019-05-07T07:52:14.197Z,72.92
2019-05-07T07:54:44.124Z,73.02
2019-05-07T07:57:14.069Z,73.13
2019-05-07T07:59:44.007Z,74.16
2019-05-07T08:02:13.955Z,73.26
2019-05-07T08:04:44.187Z,73.33
2019-05-07T08:07:14.130Z,75.06
2019-05-07T08:09:44.047Z,75.35
2019-05-07T08:12:13.992Z,76.68
2019-05-07T08:14:43.907Z,75.09
2019-05-07T08:17:14.163Z,75.33
2019-05-07T08:19:44.122Z,76.87
2019-05-07T08:22:14.045Z,76.67
2019-05-07T08:24:43.975Z,76.50
2019-05-07T08:27:15.287Z,77.57
2019-05-07T08:29:43.837Z,78.01
2019-05-07T08:32:13.789Z,77.53
2019-05-07T08:34:43.703Z,78.18
2019-05-07T08:37:13.634Z,78.34
2019-05-07T08:39:43.564Z,77.68
2019-05-07T08:42:13.490Z,77.28
2019-05-07T08:44:43.422Z,76.51
2019-05-07T08:47:13.395Z,78.02
2019-05-07T08:49:43.640Z,76.69
2019-05-07T08:52:13.558Z,74.06
2019-05-07T08:54:43.521Z,74.42
2019-05-07T08:57:13.438Z,74.29
2019-05-07T08:59:57.184Z,74.37
2019-05-07T09:02:13.557Z,74.00
2019-05-07T09:04:43.494Z,70.23
2019-05-07T09:07:13.465Z,70.00
2019-05-07T09:09:43.350Z,67.90
2019-05-07T09:12:13.579Z,68.28
2019-05-07T09:14:43.518Z,69.24
2019-05-07T09:17:13.730Z,67.56
2019-05-07T09:19:50.797Z,64.41
2019-05-07T09:22:13.947Z,64.68
2019-05-07T09:24:43.921Z,65.12
2019-05-07T09:27:13.851Z,63.42
2019-05-07T09:29:43.787Z,64.32
2019-05-07T09:32:13.710Z,63.77
2019-05-07T09:34:43.660Z,65.58
2019-05-07T09:37:13.574Z,64.14
2019-05-07T09:39:43.515Z,63.35
2019-05-07T09:42:13.773Z,62.08
2019-05-07T09:44:43.705Z,60.99
2019-05-07T09:47:13.626Z,61.38
2019-05-07T09:49:43.566Z,61.57
2019-05-07T09:52:13.481Z,60.29
2019-05-07T09:54:43.410Z,59.93
2019-05-07T09:57:27.320Z,62.28
2019-05-07T09:59:43.561Z,62.28
2019-05-07T10:02:13.504Z,61.02
2019-05-07T10:04:43.438Z,61.45
2019-05-07T10:07:13.384Z,61.38
2019-05-07T10:09:43.623Z,60.07
2019-05-07T10:12:13.537Z,60.78
2019-05-07T10:14:43.769Z,59.21
2019-05-07T10:17:13.971Z,57.01
2019-05-07T10:19:43.914Z,57.65
2019-05-07T10:22:13.828Z,57.02
2019-05-07T10:24:44.154Z,55.93
2019-05-07T10:27:14.090Z,55.35
2019-05-07T10:29:44.021Z,54.33
2019-05-07T10:32:13.943Z,55.62
2019-05-07T10:34:44.189Z,52.54
2019-05-07T10:37:14.104Z,54.02
2019-05-07T10:39:44.043Z,54.25
2019-05-07T10:42:14.229Z,53.32
2019-05-07T10:44:44.159Z,51.85
2019-05-07T10:47:14.083Z,53.72
2019-05-07T10:49:44.032Z,54.34
2019-05-07T10:52:13.950Z,52.86
2019-05-07T10:54:56.534Z,53.91
2019-05-07T10:57:13.813Z,51.63
2019-05-07T10:59:43.753Z,50.96
2019-05-07T11:02:13.945Z,50.43
2019-05-07T11:04:45.921Z,52.16
2019-05-07T11:07:13.797Z,52.72
2019-05-07T11:09:43.718Z,51.74
2019-05-07T11:12:13.923Z,52.28
2019-05-07T11:17:23.458Z,52.70
2019-05-07T11:19:53.406Z,49.37
2019-05-07T11:22:23.318Z,48.82
2019-05-07T11:24:53.261Z,50.59
2019-05-07T11:27:23.191Z,51.18
2019-05-07T11:29:53.105Z,50.29
2019-05-07T11:32:23.039Z,49.38
2019-05-07T11:34:56.211Z,50.95
2019-05-07T11:37:22.910Z,51.57
2019-05-07T11:39:52.822Z,53.24
2019-05-07T11:42:23.109Z,53.44
2019-05-07T11:44:55.073Z,53.34
2019-05-07T11:47:22.959Z,52.76
2019-05-07T11:49:52.884Z,53.16
2019-05-07T11:52:22.881Z,52.23
2019-05-07T11:54:52.725Z,50.87
2019-05-07T11:57:22.704Z,50.95
2019-05-07T11:59:54.359Z,52.40
2019-05-07T12:02:22.740Z,52.86
2019-05-07T12:04:52.734Z,53.47
2019-05-07T12:07:22.748Z,52.83
2019-05-07T12:09:52.750Z,52.14
2019-05-07T12:12:22.617Z,53.92
2019-05-07T12:14:52.532Z,52.46
2019-05-07T12:17:22.478Z,51.52
2019-05-07T12:19:52.719Z,52.12
2019-05-07T12:22:22.442Z,52.06
2019-05-07T12:24:52.367Z,51.34
2019-05-07T12:27:23.079Z,51.63
2019-05-07T12:29:52.917Z,51.54
2019-05-07T12:32:22.798Z,51.61
2019-05-07T12:34:52.829Z,52.51
2019-05-07T12:37:22.964Z,50.59
2019-05-07T12:39:52.902Z,50.57
2019-05-07T12:42:22.841Z,50.84
2019-05-07T12:44:52.760Z,48.57
2019-05-07T12:47:22.993Z,48.85
2019-05-07T12:49:53.214Z,50.52
2019-05-07T12:52:23.148Z,50.71
2019-05-07T12:54:53.067Z,49.64
2019-05-07T12:57:22.997Z,47.80
2019-05-07T12:59:53.024Z,49.12
2019-05-07T13:02:37.329Z,47.93
2019-05-07T13:04:52.802Z,48.86
2019-05-07T13:07:22.741Z,48.98
2019-05-07T13:09:52.941Z,49.20
2019-05-07T13:12:22.857Z,48.74
2019-05-07T13:14:53.076Z,49.47
2019-05-07T13:17:23.012Z,48.93
2019-05-07T13:19:52.941Z,48.07
2019-05-07T13:22:22.865Z,49.03
2019-05-07T13:24:53.133Z,49.60
2019-05-07T13:27:23.077Z,48.04
2019-05-07T13:29:53.384Z,50.05
2019-05-07T13:32:23.338Z,49.21
2019-05-07T13:34:53.628Z,47.94
2019-05-07T13:37:23.826Z,47.71
2019-05-07T13:39:53.753Z,48.57
2019-05-07T13:47:42.340Z,48.87
2019-05-07T13:50:12.301Z,47.98
2019-05-07T13:52:43.319Z,49.97
2019-05-07T13:55:12.882Z,48.85
2019-05-07T13:57:42.381Z,49.63
2019-05-07T14:00:12.980Z,50.20
2019-05-07T14:02:42.514Z,49.43
2019-05-07T14:05:14.354Z,49.05
2019-05-07T14:07:42.951Z,50.35
2019-05-07T14:10:13.164Z,51.03
2019-05-07T14:12:43.110Z,50.84
2019-05-07T14:15:13.416Z,49.91
2019-05-07T14:17:43.344Z,50.34
2019-05-07T14:20:13.275Z,50.88
2019-05-07T14:22:43.196Z,50.77
2019-05-07T14:25:13.133Z,49.98
2019-05-07T14:27:43.381Z,50.59
2019-05-07T14:30:13.341Z,50.18
2019-05-07T14:32:43.266Z,49.65
2019-05-07T14:35:13.519Z,49.77
2019-05-07T14:37:43.465Z,51.13
2019-05-07T14:40:13.428Z,51.50
2019-05-07T14:42:43.322Z,50.94
2019-05-07T14:45:13.591Z,50.56
2019-05-07T14:47:44.713Z,51.23
2019-05-07T14:50:13.715Z,51.04
2019-05-07T14:52:43.669Z,51.63
2019-05-07T14:55:13.599Z,51.97
2019-05-07T14:57:43.527Z,52.73
2019-05-07T15:00:13.453Z,51.96
2019-05-07T15:02:43.693Z,52.72
2019-05-07T15:05:13.914Z,52.55
2019-05-07T15:07:43.838Z,52.52
2019-05-07T15:10:14.050Z,52.65
2019-05-07T15:12:43.964Z,51.63
2019-05-07T15:15:13.929Z,51.46
2019-05-07T15:17:43.870Z,51.23
2019-05-07T15:20:14.126Z,50.32
2019-05-07T15:22:49.516Z,51.43
2019-05-07T15:25:14.349Z,51.99
2019-05-07T15:27:44.574Z,50.90
2019-05-07T15:30:14.525Z,50.80
2019-05-07T15:32:44.442Z,51.92
2019-05-07T15:35:14.728Z,52.76
2019-05-07T15:37:44.650Z,52.34
2019-05-07T15:40:14.580Z,52.67
2019-05-07T15:42:44.505Z,53.02
2019-05-07T15:45:14.472Z,53.63
2019-05-07T15:47:44.409Z,53.77
2019-05-07T15:50:14.350Z,52.22
2019-05-07T15:52:51.442Z,51.26
2019-05-07T15:55:14.208Z,52.57
2019-05-07T15:57:44.471Z,52.94
2019-05-07T16:00:14.415Z,53.23
2019-05-07T16:02:45.314Z,52.64
2019-05-07T16:05:14.288Z,52.92
2019-05-07T16:07:44.214Z,51.84
2019-05-07T16:10:15.061Z,51.82
2019-05-07T16:12:44.661Z,51.74
2019-05-07T16:15:14.596Z,51.89
2019-05-07T16:17:44.886Z,52.22
2019-05-07T16:20:14.805Z,53.46
2019-05-07T16:22:45.015Z,54.77
2019-05-07T16:25:14.935Z,52.29
2019-05-07T16:30:24.223Z,52.53
2019-05-07T16:32:55.426Z,53.16
2019-05-07T16:35:24.412Z,52.74
2019-05-07T16:37:54.630Z,52.82
2019-05-07T16:40:24.565Z,57.91
2019-05-07T16:45:34.508Z,53.64
2019-05-07T16:48:04.457Z,54.66
2019-05-07T16:50:34.375Z,55.58
2019-05-07T16:53:04.322Z,54.05
2019-05-07T16:55:36.854Z,54.27
2019-05-07T16:58:04.516Z,53.42
2019-05-07T17:00:34.410Z,51.73
2019-05-07T17:03:04.587Z,52.52
2019-05-07T17:05:34.507Z,53.29
2019-05-07T17:08:04.758Z,53.11
2019-05-07T17:10:34.692Z,52.73
2019-05-07T17:15:44.323Z,51.45
2019-05-07T17:18:14.520Z,51.42
2019-05-07T17:20:44.791Z,52.24
2019-05-07T17:25:54.618Z,50.74
2019-05-07T17:28:24.589Z,52.53
2019-05-07T17:30:54.522Z,52.92
2019-05-07T17:33:24.430Z,53.00
2019-05-07T17:35:54.359Z,53.08
2019-05-07T17:38:24.587Z,52.87
2019-05-07T17:40:54.829Z,53.55
2019-05-07T17:43:25.132Z,53.43
2019-05-07T17:45:55.058Z,53.92
2019-05-07T17:48:25.268Z,54.86
2019-05-07T17:50:55.182Z,54.69
2019-05-07T17:58:43.770Z,53.54
2019-05-07T18:03:53.321Z,54.42
2019-05-07T18:06:23.308Z,55.05
2019-05-07T18:08:53.235Z,55.28
2019-05-07T18:11:24.334Z,55.67
2019-05-07T18:13:53.098Z,56.69
2019-05-07T18:16:23.016Z,56.96
2019-05-07T18:18:52.950Z,57.06
2019-05-07T18:21:22.862Z,57.84
2019-05-07T18:23:53.052Z,58.58
2019-05-07T18:26:30.321Z,59.00
2019-05-07T18:28:52.909Z,58.96
2019-05-07T18:31:22.816Z,58.96
2019-05-07T18:33:52.746Z,59.14
2019-05-07T18:36:23.008Z,59.76
2019-05-07T18:38:53.239Z,59.75
2019-05-07T18:41:23.174Z,60.64
2019-05-07T18:46:32.806Z,61.43
2019-05-07T18:49:03.414Z,61.67
2019-05-07T18:51:32.634Z,61.59
2019-05-07T18:54:02.573Z,62.16
2019-05-07T18:56:32.770Z,62.60
2019-05-07T18:59:02.702Z,62.38
2019-05-07T19:01:32.886Z,62.00
2019-05-07T19:04:02.813Z,62.34
2019-05-07T19:06:33.023Z,61.99
2019-05-07T19:09:03.344Z,62.35
2019-05-07T19:11:33.259Z,62.59
2019-05-07T19:14:03.204Z,62.76
2019-05-07T19:16:33.387Z,63.53
2019-05-07T19:19:03.373Z,63.73
2019-05-07T19:21:33.295Z,63.99
2019-05-07T19:24:03.228Z,64.02
2019-05-07T19:26:33.139Z,63.82
2019-05-07T19:29:03.069Z,63.62
2019-05-07T19:31:33.003Z,64.17
2019-05-07T19:34:03.156Z,64.02
2019-05-07T19:36:33.212Z,64.24
2019-05-07T19:39:03.433Z,63.81
2019-05-07T19:41:33.357Z,63.50
2019-05-07T19:44:03.286Z,63.44
2019-05-07T19:46:33.200Z,64.02
2019-05-07T19:49:03.150Z,64.16
2019-05-07T19:51:33.072Z,64.13
2019-05-07T19:54:03.014Z,64.19
2019-05-07T19:56:33.269Z,64.21
2019-05-07T19:59:03.547Z,64.25
2019-05-07T20:01:33.460Z,64.53
2019-05-07T20:04:03.682Z,64.29
2019-05-07T20:06:33.606Z,64.31
2019-05-07T20:09:11.966Z,64.21
2019-05-07T20:11:33.727Z,64.35
2019-05-07T20:14:03.974Z,64.89
2019-05-07T20:16:33.896Z,64.54
2019-05-07T20:19:03.837Z,64.65
2019-05-07T20:21:34.110Z,64.88
2019-05-07T20:24:04.321Z,65.13
2019-05-07T20:26:34.259Z,64.62
2019-05-07T20:29:04.194Z,64.46
2019-05-07T20:31:34.405Z,64.95
2019-05-07T20:34:04.321Z,65.37
2019-05-07T20:36:34.250Z,65.31
2019-05-07T20:39:04.159Z,64.83
2019-05-07T20:41:34.430Z,64.81
2019-05-07T20:44:04.346Z,64.98
2019-05-07T20:46:34.282Z,65.08
2019-05-07T20:49:04.217Z,65.14
2019-05-07T20:51:34.498Z,65.86
2019-05-07T20:54:04.721Z,65.77
2019-05-07T20:56:34.655Z,65.84
2019-05-07T20:59:04.590Z,65.89
2019-05-07T21:01:34.559Z,66.29
2019-05-07T21:04:04.520Z,66.42
2019-05-07T21:06:34.445Z,66.74
2019-05-07T21:11:43.437Z,66.82
2019-05-07T21:14:13.351Z,66.74
2019-05-07T21:16:43.295Z,66.30
2019-05-07T21:19:13.209Z,67.15
2019-05-07T21:21:43.145Z,67.30
2019-05-07T21:24:13.239Z,67.23
2019-05-07T21:26:43.315Z,67.11
2019-05-07T21:29:13.873Z,67.20
2019-05-07T21:31:43.353Z,67.26
2019-05-07T21:34:13.107Z,67.31
2019-05-07T21:36:43.513Z,67.40
2019-05-07T21:39:13.357Z,66.84
2019-05-07T21:41:43.230Z,66.88
2019-05-07T21:44:13.154Z,66.54
2019-05-07T21:46:43.154Z,66.29
2019-05-07T21:49:13.073Z,65.87
2019-05-07T21:51:43.002Z,66.08
2019-05-07T21:54:12.928Z,66.06
2019-05-07T21:56:42.870Z,65.89
2019-05-07T21:59:12.796Z,65.36
2019-05-07T22:01:43.695Z,65.02
2019-05-07T22:04:12.930Z,65.28
2019-05-07T22:06:45.410Z,65.16
2019-05-07T22:09:12.924Z,65.33
2019-05-07T22:11:42.853Z,65.21
2019-05-07T22:16:54.487Z,65.00
2019-05-07T22:22:02.884Z,64.96
2019-05-07T22:24:32.860Z,65.29
2019-05-07T22:27:01.750Z,65.34
2019-05-07T22:29:31.444Z,65.33
2019-05-07T22:32:02.762Z,65.88
2019-05-07T22:34:31.666Z,66.08
2019-05-07T22:37:03.303Z,66.45
2019-05-07T22:39:32.808Z,66.75
2019-05-07T22:42:02.506Z,66.18
2019-05-07T22:44:32.639Z,66.18
2019-05-07T22:47:02.855Z,65.70
2019-05-07T22:49:33.397Z,65.77
2019-05-07T22:52:03.024Z,65.85
2019-05-07T22:54:33.303Z,66.05
2019-05-07T22:57:03.534Z,65.94
2019-05-07T22:59:33.492Z,66.37
2019-05-07T23:02:03.789Z,66.25
2019-05-07T23:04:33.986Z,66.70
2019-05-07T23:07:03.927Z,67.05
2019-05-07T23:09:34.147Z,67.09
2019-05-07T23:12:04.080Z,67.26
2019-05-07T23:17:13.348Z,67.75
2019-05-07T23:19:43.623Z,67.78
2019-05-07T23:22:13.616Z,67.84
2019-05-07T23:24:43.459Z,67.89
2019-05-07T23:27:14.810Z,68.24
2019-05-07T23:29:43.904Z,68.52
2019-05-07T23:32:13.778Z,68.91
2019-05-07T23:34:44.024Z,68.88
2019-05-07T23:37:13.951Z,69.01
2019-05-07T23:39:43.886Z,69.19
2019-05-07T23:44:53.478Z,69.74
2019-05-07T23:47:23.415Z,70.02
2019-05-07T23:49:53.340Z,70.36
2019-05-07T23:52:23.257Z,70.09
2019-05-07T23:54:53.184Z,69.98
2019-05-07T23:57:23.348Z,70.51
2019-05-07T23:59:53.368Z,70.46
